Time;durP1;ratioP1;P1;durP2;ratioP2;P2;SDS_P1;SDS_P2;PMS_P1;PMS_P2;Temp;Humidity;BMP_temperature;BMP_pressure;BME280_temperature;BME280_humidity;BME280_pressure;Samples;Min_cycle;Max_cycle;Signal;HPM_P1;HPM_P2
2021/01/22 00:00:29;;;;;;;6.50;1.60;;;28.30;77.20;;;;;;5046735;28;20486;-81
2021/01/22 00:03:01;;;;;;;7.00;1.70;;;28.30;74.90;;;;;;5041660;28;20495;-80
2021/01/22 00:05:30;;;;;;;6.55;2.03;;;28.30;76.50;;;;;;5049928;28;20421;-80
2021/01/22 00:07:57;;;;;;;6.35;1.55;;;28.60;74.40;;;;;;5047888;28;20384;-80
2021/01/22 00:10:24;;;;;;;4.50;1.50;;;29.20;73.10;;;;;;5042885;28;20470;-80
2021/01/22 00:12:52;;;;;;;6.47;1.53;;;29.60;72.00;;;;;;5039614;28;21254;-80
2021/01/22 00:15:19;;;;;;;3.17;1.37;;;29.60;70.20;;;;;;5064650;28;20374;-80
2021/01/22 00:17:46;;;;;;;3.53;1.60;;;29.60;69.30;;;;;;5043098;28;20390;-81
2021/01/22 00:20:13;;;;;;;5.10;1.30;;;29.70;68.40;;;;;;5043121;28;20917;-80
2021/01/22 00:22:40;;;;;;;4.10;1.60;;;29.80;70.00;;;;;;5041757;28;20444;-80
2021/01/22 00:25:07;;;;;;;4.45;1.38;;;30.50;67.10;;;;;;5023628;28;20399;-81
2021/01/22 00:27:34;;;;;;;8.23;1.80;;;31.50;65.50;;;;;;5043124;28;20408;-80
2021/01/22 00:30:01;;;;;;;5.18;1.60;;;32.00;62.40;;;;;;5045406;28;20511;-82
2021/01/22 00:32:29;;;;;;;3.13;1.50;;;32.50;60.60;;;;;;5046498;28;20437;-82
2021/01/22 00:34:55;;;;;;;4.65;1.25;;;32.90;56.40;;;;;;5045654;28;20391;-81
2021/01/22 00:37:23;;;;;;;5.40;1.20;;;33.00;53.30;;;;;;5045448;28;20391;-80
2021/01/22 00:39:50;;;;;;;4.53;1.25;;;33.50;53.80;;;;;;5040204;28;20926;-80
2021/01/22 00:42:17;;;;;;;5.82;1.30;;;33.70;52.20;;;;;;5040858;28;20383;-80
2021/01/22 00:44:44;;;;;;;6.57;1.50;;;33.80;52.70;;;;;;5048439;28;20462;-80
2021/01/22 00:47:11;;;;;;;3.83;1.10;;;34.10;54.30;;;;;;5047011;28;20887;-80
2021/01/22 00:49:38;;;;;;;4.70;1.30;;;34.30;53.50;;;;;;5045119;28;20436;-81
2021/01/22 00:52:05;;;;;;;4.63;1.13;;;34.10;51.30;;;;;;5053094;28;20408;-80
2021/01/22 00:54:32;;;;;;;4.80;1.23;;;33.80;50.30;;;;;;5027339;28;20400;-80
2021/01/22 00:56:59;;;;;;;5.65;1.48;;;33.90;49.90;;;;;;5044168;28;20403;-80
2021/01/22 00:59:26;;;;;;;4.73;1.30;;;34.30;50.80;;;;;;5033184;28;20755;-80
2021/01/22 01:01:53;;;;;;;4.13;1.40;;;34.50;47.30;;;;;;5047642;28;20443;-80
2021/01/22 01:04:20;;;;;;;3.78;0.90;;;34.70;50.30;;;;;;5046629;28;20399;-81
2021/01/22 01:06:47;;;;;;;5.00;1.27;;;34.50;46.60;;;;;;5048415;28;20403;-80
2021/01/22 01:09:14;;;;;;;3.83;1.17;;;34.50;48.30;;;;;;5050702;28;20481;-79
2021/01/22 01:11:44;;;;;;;3.92;1.35;;;34.90;49.40;;;;;;5049141;28;20430;-79
2021/01/22 01:14:12;;;;;;;3.22;1.17;;;34.90;53.00;;;;;;5042092;28;20441;-79
2021/01/22 01:16:39;;;;;;;6.27;1.87;;;35.00;44.90;;;;;;5048021;28;20416;-80
2021/01/22 01:19:06;;;;;;;4.10;1.20;;;34.80;46.10;;;;;;5052045;28;20398;-80
2021/01/22 01:21:33;;;;;;;4.35;1.17;;;34.40;46.50;;;;;;5033709;28;20413;-81
2021/01/22 01:24:00;;;;;;;2.85;1.10;;;34.10;47.40;;;;;;5054489;28;20423;-81
2021/01/22 01:26:27;;;;;;;3.03;1.27;;;33.70;48.70;;;;;;5030836;28;20406;-81
2021/01/22 01:28:54;;;;;;;2.90;0.90;;;33.40;51.20;;;;;;5046180;28;20513;-80
2021/01/22 01:31:24;;;;;;;3.92;1.30;;;33.00;50.00;;;;;;5049545;28;20553;-80
2021/01/22 01:34:00;;;;;;;4.40;1.30;;;32.80;51.70;;;;;;5052723;28;20871;-80
2021/01/22 01:36:27;;;;;;;4.18;1.20;;;32.60;53.70;;;;;;5047298;28;20502;-81
2021/01/22 01:38:54;;;;;;;3.90;1.70;;;32.60;50.50;;;;;;5048557;28;20478;-81
2021/01/22 01:41:22;;;;;;;3.28;1.30;;;32.40;54.30;;;;;;5049871;28;20392;-82
2021/01/22 01:43:49;;;;;;;3.42;1.05;;;32.40;51.50;;;;;;5048782;28;20426;-81
2021/01/22 01:46:17;;;;;;;2.83;1.20;;;32.20;48.20;;;;;;5048269;28;21066;-80
2021/01/22 01:48:44;;;;;;;2.88;1.00;;;32.30;54.50;;;;;;5048024;28;20801;-80
2021/01/22 01:51:11;;;;;;;3.13;1.10;;;32.50;50.40;;;;;;5047152;28;20988;-80
2021/01/22 01:53:39;;;;;;;3.40;0.80;;;32.60;49.20;;;;;;5048621;28;20522;-81
2021/01/22 01:56:06;;;;;;;4.28;1.00;;;32.60;50.30;;;;;;5047729;28;20407;-81
2021/01/22 01:58:34;;;;;;;5.18;1.10;;;32.60;51.90;;;;;;5050074;28;20434;-81
2021/01/22 02:01:02;;;;;;;3.38;1.02;;;32.60;49.90;;;;;;5048217;28;20399;-81
2021/01/22 02:03:29;;;;;;;2.72;0.85;;;32.70;52.20;;;;;;5049130;28;20411;-82
2021/01/22 02:05:56;;;;;;;2.90;0.90;;;32.80;51.60;;;;;;5047289;28;20399;-82
2021/01/22 02:08:26;;;;;;;3.20;0.80;;;32.80;53.00;;;;;;5051705;28;20387;-81
2021/01/22 02:10:54;;;;;;;4.18;1.05;;;32.80;49.20;;;;;;5049190;28;20458;-81
2021/01/22 02:13:22;;;;;;;4.05;1.10;;;32.60;47.50;;;;;;5047314;28;20408;-81
2021/01/22 02:15:50;;;;;;;4.00;1.00;;;32.40;46.30;;;;;;5049195;28;20396;-82
2021/01/22 02:18:17;;;;;;;5.40;1.10;;;32.40;49.00;;;;;;5043156;28;20431;-82
2021/01/22 02:20:53;;;;;;;3.17;0.80;;;32.40;48.90;;;;;;5050687;28;20380;-82
2021/01/22 02:23:23;;;;;;;3.50;1.30;;;32.40;53.70;;;;;;5058489;28;20379;-82
2021/01/22 02:25:53;;;;;;;2.88;1.17;;;32.50;54.60;;;;;;5047369;28;20894;-82
2021/01/22 02:28:21;;;;;;;3.03;0.77;;;32.60;49.40;;;;;;5050231;28;20364;-81
2021/01/22 02:30:50;;;;;;;4.65;0.77;;;32.60;48.30;;;;;;5047485;28;20826;-82
2021/01/22 02:33:18;;;;;;;2.38;0.70;;;32.60;44.70;;;;;;5045683;28;20404;-83
2021/01/22 02:35:48;;;;;;;4.50;0.85;;;32.60;46.30;;;;;;5048450;28;20508;-82
2021/01/22 02:38:19;;;;;;;2.40;0.80;;;32.80;50.70;;;;;;5049112;28;21173;-82
2021/01/22 02:40:48;;;;;;;3.65;0.75;;;32.90;47.20;;;;;;5048593;28;20399;-82
2021/01/22 02:43:16;;;;;;;3.20;0.80;;;33.00;44.20;;;;;;5048895;28;20402;-82
2021/01/22 02:45:43;;;;;;;2.13;0.80;;;33.10;44.30;;;;;;5050136;28;20396;-81
2021/01/22 02:48:13;;;;;;;2.63;1.00;;;33.10;48.30;;;;;;5049246;28;20408;-81
2021/01/22 02:50:40;;;;;;;1.90;0.70;;;33.10;46.70;;;;;;5048177;28;20399;-80
2021/01/22 02:53:07;;;;;;;2.00;0.70;;;33.10;40.60;;;;;;5048813;28;20388;-80
2021/01/22 02:55:36;;;;;;;3.40;0.70;;;33.10;41.10;;;;;;5049876;28;20414;-83
2021/01/22 02:58:21;;;;;;;3.00;0.60;;;33.10;39.70;;;;;;5046470;28;20419;-82
2021/01/22 03:00:52;;;;;;;4.20;0.70;;;33.10;41.30;;;;;;5047083;28;20400;-81
2021/01/22 03:03:30;;;;;;;6.65;1.00;;;33.20;42.50;;;;;;5035865;28;20412;-82
2021/01/22 03:05:58;;;;;;;2.60;0.80;;;33.30;42.10;;;;;;5032468;28;20435;-82
2021/01/22 03:08:28;;;;;;;2.85;0.93;;;33.30;39.80;;;;;;5069575;28;20372;-81
2021/01/22 03:10:57;;;;;;;3.38;0.82;;;33.30;41.60;;;;;;5056257;28;20549;-82
2021/01/22 03:13:25;;;;;;;3.70;0.90;;;33.30;42.00;;;;;;5046622;28;21056;-82
2021/01/22 03:15:53;;;;;;;3.85;0.77;;;33.30;45.00;;;;;;5036416;28;20387;-82
2021/01/22 03:18:21;;;;;;;3.80;0.93;;;33.40;43.80;;;;;;5045888;28;20400;-82
2021/01/22 03:20:49;;;;;;;6.18;0.95;;;33.50;44.10;;;;;;5048884;28;20392;-82
2021/01/22 03:23:19;;;;;;;4.72;0.85;;;33.70;43.30;;;;;;5045916;28;20427;-81
2021/01/22 03:25:46;;;;;;;8.43;1.38;;;33.70;42.20;;;;;;5046683;28;20510;-83
2021/01/22 03:28:16;;;;;;;6.70;1.65;;;33.70;41.10;;;;;;5045978;28;20489;-81
2021/01/22 03:30:43;;;;;;;5.03;1.20;;;33.60;40.90;;;;;;5043387;28;20400;-82
2021/01/22 03:33:10;;;;;;;3.95;1.00;;;33.50;44.70;;;;;;5027185;28;20465;-81
2021/01/22 03:35:38;;;;;;;4.45;0.85;;;33.60;43.30;;;;;;5048166;28;20527;-81
2021/01/22 03:38:06;;;;;;;2.58;0.93;;;33.70;44.30;;;;;;5039942;28;20395;-82
2021/01/22 03:40:33;;;;;;;5.00;1.02;;;33.80;45.40;;;;;;5030695;28;20391;-82
2021/01/22 03:43:00;;;;;;;1.55;0.75;;;33.80;42.50;;;;;;5048551;28;20746;-82
2021/01/22 03:45:27;;;;;;;1.77;0.80;;;33.80;40.00;;;;;;5048683;28;20399;-82
2021/01/22 03:47:54;;;;;;;1.63;0.90;;;33.80;39.90;;;;;;5048331;28;20392;-82
2021/01/22 03:50:21;;;;;;;2.55;0.57;;;33.80;40.10;;;;;;5048656;28;20379;-83
2021/01/22 03:52:48;;;;;;;3.80;1.10;;;33.80;41.30;;;;;;5047552;28;20475;-81
2021/01/22 03:55:15;;;;;;;1.73;0.70;;;33.70;41.10;;;;;;5048467;28;20916;-81
2021/01/22 03:57:42;;;;;;;2.88;1.00;;;33.70;41.00;;;;;;5048409;28;20378;-81
2021/01/22 04:00:10;;;;;;;1.90;0.82;;;33.80;42.80;;;;;;5038256;28;20477;-81
2021/01/22 04:02:37;;;;;;;2.63;0.93;;;34.00;41.80;;;;;;5028270;28;20868;-81
2021/01/22 04:05:05;;;;;;;3.20;0.60;;;34.10;43.30;;;;;;5036138;28;20920;-83
2021/01/22 04:07:32;;;;;;;1.37;0.80;;;34.20;40.50;;;;;;5047873;28;20434;-82
2021/01/22 04:09:59;;;;;;;3.55;0.57;;;34.20;41.00;;;;;;5048266;28;20878;-81
2021/01/22 04:12:26;;;;;;;1.75;0.70;;;34.30;41.10;;;;;;5047294;28;20408;-82
2021/01/22 04:14:53;;;;;;;4.90;0.80;;;34.40;41.20;;;;;;5047967;28;20402;-82
2021/01/22 04:17:20;;;;;;;3.13;0.88;;;34.50;42.00;;;;;;5049067;28;20380;-82
2021/01/22 04:19:47;;;;;;;2.55;0.90;;;34.50;42.50;;;;;;5048883;28;20411;-82
2021/01/22 04:22:16;;;;;;;4.28;0.88;;;34.50;41.50;;;;;;5048566;28;20961;-81
2021/01/22 04:24:43;;;;;;;2.00;0.60;;;34.60;39.00;;;;;;5029765;28;20392;-82
2021/01/22 04:27:11;;;;;;;1.45;0.68;;;34.60;40.70;;;;;;5047454;28;20466;-82
2021/01/22 04:29:38;;;;;;;2.83;0.80;;;34.60;39.80;;;;;;5048534;28;20372;-82
2021/01/22 04:32:07;;;;;;;7.57;1.42;;;34.70;41.50;;;;;;5048644;28;20420;-81
2021/01/22 04:34:35;;;;;;;4.75;1.73;;;34.60;46.00;;;;;;5041953;28;20385;-81
2021/01/22 04:37:03;;;;;;;5.70;1.70;;;34.10;48.30;;;;;;5048992;28;20380;-82
2021/01/22 04:39:32;;;;;;;5.60;1.33;;;33.60;46.70;;;;;;5048007;28;20378;-81
2021/01/22 04:41:59;;;;;;;5.03;1.40;;;33.10;48.80;;;;;;5049683;28;20420;-81
2021/01/22 04:44:27;;;;;;;6.18;1.60;;;32.80;51.20;;;;;;5052074;28;20387;-81
2021/01/22 04:46:54;;;;;;;8.10;1.63;;;32.40;52.70;;;;;;5052780;28;20368;-82
2021/01/22 04:49:22;;;;;;;5.10;1.50;;;32.20;52.80;;;;;;5052140;28;20387;-82
2021/01/22 04:51:54;;;;;;;7.72;2.05;;;32.10;54.00;;;;;;5052100;28;20519;-82
2021/01/22 04:54:29;;;;;;;6.77;1.90;;;32.20;53.40;;;;;;5051542;28;20418;-81
2021/01/22 04:56:59;;;;;;;5.10;1.70;;;32.20;52.80;;;;;;5051333;28;20779;-82
2021/01/22 04:59:38;;;;;;;5.57;1.80;;;32.00;53.40;;;;;;5033683;28;20461;-81
2021/01/22 05:02:05;;;;;;;7.10;2.03;;;31.70;54.10;;;;;;5051395;28;20418;-83
2021/01/22 05:04:33;;;;;;;5.10;1.77;;;31.50;53.40;;;;;;5050112;28;20399;-81
2021/01/22 05:07:00;;;;;;;6.20;1.75;;;31.20;55.30;;;;;;5051244;28;20448;-82
2021/01/22 05:09:27;;;;;;;5.03;1.65;;;30.80;56.20;;;;;;5051391;28;20387;-83
2021/01/22 05:11:54;;;;;;;7.70;1.77;;;30.70;57.10;;;;;;5049632;28;20747;-82
2021/01/22 05:14:22;;;;;;;10.30;1.70;;;30.50;58.00;;;;;;5050534;28;20387;-81
2021/01/22 05:17:03;;;;;;;6.15;2.08;;;30.40;59.20;;;;;;5052055;28;20473;-82
2021/01/22 05:19:31;;;;;;;4.72;1.70;;;30.40;58.20;;;;;;5051725;28;20392;-82
2021/01/22 05:22:00;;;;;;;5.32;1.70;;;30.30;58.40;;;;;;5051374;28;20411;-84
2021/01/22 05:24:28;;;;;;;10.45;2.20;;;30.20;58.20;;;;;;5051467;28;20925;-82
2021/01/22 05:27:15;;;;;;;11.38;2.00;;;30.20;59.20;;;;;;5051485;28;20430;-81
2021/01/22 05:29:44;;;;;;;19.98;4.00;;;30.10;61.20;;;;;;5051281;28;20891;-79
2021/01/22 05:32:30;;;;;;;24.95;4.65;;;29.50;73.50;;;;;;5042722;28;20401;-81
2021/01/22 05:34:58;;;;;;;13.68;1.98;;;27.50;85.20;;;;;;5050704;28;20407;-83
2021/01/22 05:37:26;;;;;;;4.50;1.20;;;25.10;92.00;;;;;;5051342;28;20379;-81
2021/01/22 05:40:13;;;;;;;7.20;1.67;;;22.90;94.00;;;;;;5049481;28;20410;-80
2021/01/22 05:42:56;;;;;;;6.40;1.60;;;21.50;99.60;;;;;;5042743;28;20468;-80
2021/01/22 05:45:41;;;;;;;3.60;1.67;;;20.90;99.90;;;;;;5031370;28;20377;-79
2021/01/22 05:48:23;;;;;;;5.10;2.03;;;20.90;99.90;;;;;;5031280;28;20396;-80
2021/01/22 05:50:51;;;;;;;6.32;2.03;;;20.80;99.90;;;;;;5031046;28;20358;-80
2021/01/22 05:53:20;;;;;;;6.03;1.83;;;20.90;99.90;;;;;;5029971;28;20382;-80
2021/01/22 05:56:05;;;;;;;6.60;2.30;;;20.90;99.90;;;;;;5031023;28;20463;-81
2021/01/22 05:58:33;;;;;;;8.98;2.25;;;21.00;99.90;;;;;;5031149;28;20486;-82
2021/01/22 06:01:20;;;;;;;5.37;2.10;;;21.10;99.90;;;;;;5031052;28;20373;-82
2021/01/22 06:03:52;;;;;;;5.07;1.83;;;21.20;99.90;;;;;;5030740;28;20447;-82
2021/01/22 06:06:20;;;;;;;6.45;1.80;;;21.50;99.90;;;;;;5030902;28;20456;-82
2021/01/22 06:08:52;;;;;;;4.43;1.70;;;21.80;99.90;;;;;;5030971;28;20388;-82
2021/01/22 06:11:22;;;;;;;2.97;1.33;;;22.30;99.90;;;;;;5030815;28;20417;-82
2021/01/22 06:13:51;;;;;;;4.68;1.40;;;22.80;99.90;;;;;;5041692;28;20399;-82
2021/01/22 06:16:23;;;;;;;3.00;1.20;;;23.20;99.90;;;;;;5048111;28;20403;-82
2021/01/22 06:19:04;;;;;;;4.22;1.30;;;23.60;99.90;;;;;;5045735;28;20399;-82
2021/01/22 06:21:35;;;;;;;6.57;1.45;;;24.10;96.50;;;;;;5046827;28;20426;-82
2021/01/22 06:24:04;;;;;;;3.50;1.20;;;24.40;98.30;;;;;;5050371;28;20387;-83
2021/01/22 06:26:32;;;;;;;5.40;1.37;;;24.60;95.90;;;;;;5050518;28;20430;-83
2021/01/22 06:29:04;;;;;;;4.43;1.05;;;24.80;96.00;;;;;;5049270;28;20395;-83
2021/01/22 06:31:31;;;;;;;4.23;1.27;;;25.00;95.80;;;;;;5050061;28;20953;-83
2021/01/22 06:33:59;;;;;;;7.28;1.45;;;25.00;95.00;;;;;;5052721;28;20386;-83
2021/01/22 06:36:27;;;;;;;4.72;1.17;;;25.10;95.60;;;;;;5070129;28;20398;-84
2021/01/22 06:38:55;;;;;;;4.18;1.52;;;25.00;95.00;;;;;;5064420;28;20389;-81
2021/01/22 06:41:27;;;;;;;7.28;1.70;;;25.10;95.70;;;;;;5069851;28;20424;-82
2021/01/22 06:43:57;;;;;;;7.97;1.93;;;25.20;95.40;;;;;;5070006;28;20390;-81
2021/01/22 06:46:28;;;;;;;4.63;1.65;;;25.30;93.90;;;;;;5061645;28;20376;-83
2021/01/22 06:49:05;;;;;;;5.07;1.33;;;25.40;94.60;;;;;;5050086;28;20410;-83
2021/01/22 06:51:35;;;;;;;7.53;1.38;;;25.60;92.90;;;;;;5064383;28;20398;-82
2021/01/22 06:54:16;;;;;;;4.68;1.60;;;25.70;92.90;;;;;;5067770;28;20390;-82
2021/01/22 06:56:49;;;;;;;6.70;1.80;;;25.80;94.60;;;;;;5037403;28;20704;-82
2021/01/22 06:59:24;;;;;;;5.45;1.73;;;25.80;92.50;;;;;;5048251;28;20412;-82
2021/01/22 07:01:52;;;;;;;4.38;1.58;;;25.80;92.50;;;;;;5049587;28;20481;-82
2021/01/22 07:04:35;;;;;;;5.25;1.77;;;25.80;93.30;;;;;;5048930;28;20754;-82
2021/01/22 07:07:06;;;;;;;7.00;1.40;;;25.90;92.70;;;;;;5028906;28;20537;-82
2021/01/22 07:09:43;;;;;;;5.63;1.60;;;25.90;92.10;;;;;;5029801;28;20815;-83
2021/01/22 07:12:11;;;;;;;4.25;1.52;;;25.90;92.70;;;;;;5029571;28;20401;-83
2021/01/22 07:14:43;;;;;;;6.65;1.60;;;25.90;92.90;;;;;;5029619;28;20374;-83
2021/01/22 07:17:21;;;;;;;4.57;1.60;;;25.90;91.50;;;;;;5029975;28;20484;-83
2021/01/22 07:20:04;;;;;;;6.07;1.52;;;25.80;92.40;;;;;;5029573;28;20733;-83
2021/01/22 07:22:32;;;;;;;4.93;1.30;;;25.80;92.00;;;;;;5043164;28;20454;-82
2021/01/22 07:25:04;;;;;;;3.50;1.23;;;25.90;90.10;;;;;;5049432;28;20925;-82
2021/01/22 07:27:43;;;;;;;4.43;1.50;;;26.00;90.30;;;;;;5059083;28;20378;-82
2021/01/22 07:30:15;;;;;;;4.60;1.63;;;25.90;90.50;;;;;;5069073;28;20429;-82
2021/01/22 07:32:50;;;;;;;4.00;1.30;;;25.90;91.30;;;;;;5049939;28;20448;-82
2021/01/22 07:35:25;;;;;;;3.28;1.20;;;25.90;89.90;;;;;;5048371;28;20420;-82
2021/01/22 07:37:52;;;;;;;3.60;1.40;;;26.00;88.80;;;;;;5029032;28;20413;-82
2021/01/22 07:40:20;;;;;;;2.60;1.10;;;26.00;88.80;;;;;;5040996;28;20805;-83
2021/01/22 07:42:47;;;;;;;3.58;1.10;;;25.90;89.20;;;;;;5036863;28;20429;-82
2021/01/22 07:45:16;;;;;;;3.03;1.20;;;25.90;89.00;;;;;;5052417;28;20812;-82
2021/01/22 07:47:45;;;;;;;3.65;1.00;;;25.90;87.10;;;;;;5048469;28;20388;-83
2021/01/22 07:50:23;;;;;;;4.90;1.17;;;25.90;88.30;;;;;;5041468;28;20436;-83
2021/01/22 07:52:51;;;;;;;5.65;1.38;;;25.80;86.20;;;;;;5036682;28;20778;-82
2021/01/22 07:55:20;;;;;;;3.58;1.30;;;25.80;86.50;;;;;;5039830;28;20583;-83
2021/01/22 07:58:00;;;;;;;2.55;1.13;;;25.80;86.90;;;;;;5043386;28;20468;-83
2021/01/22 08:00:36;;;;;;;5.03;1.38;;;25.80;86.70;;;;;;5048887;28;20380;-82
2021/01/22 08:03:03;;;;;;;5.27;1.30;;;25.70;87.40;;;;;;5047696;28;20415;-82
2021/01/22 08:05:34;;;;;;;4.15;1.40;;;25.70;88.20;;;;;;5047733;28;20400;-82
2021/01/22 08:08:02;;;;;;;4.63;1.70;;;25.60;88.10;;;;;;5044918;28;20431;-83
2021/01/22 08:10:30;;;;;;;4.30;1.33;;;25.60;86.60;;;;;;5047258;28;20391;-82
2021/01/22 08:12:59;;;;;;;2.97;1.40;;;25.60;87.50;;;;;;5047809;28;20842;-82
2021/01/22 08:15:28;;;;;;;5.43;1.50;;;25.60;86.80;;;;;;5044892;28;20388;-81
2021/01/22 08:17:55;;;;;;;3.87;1.47;;;25.50;87.30;;;;;;5048406;28;20402;-82
2021/01/22 08:20:23;;;;;;;3.28;1.27;;;25.50;86.90;;;;;;5054001;28;20699;-83
2021/01/22 08:22:58;;;;;;;4.97;1.40;;;25.40;87.60;;;;;;5049849;28;20374;-82
2021/01/22 08:25:36;;;;;;;4.18;1.40;;;25.40;87.00;;;;;;5066237;28;20469;-82
2021/01/22 08:28:09;;;;;;;3.47;1.25;;;25.40;88.50;;;;;;5064434;28;20392;-83
2021/01/22 08:30:37;;;;;;;7.32;1.60;;;25.30;89.20;;;;;;5055338;28;20389;-82
2021/01/22 08:33:06;;;;;;;4.97;1.50;;;25.20;90.10;;;;;;5064837;28;20455;-82
2021/01/22 08:35:34;;;;;;;5.47;1.40;;;25.10;90.00;;;;;;5065719;28;20374;-81
2021/01/22 08:38:01;;;;;;;6.72;1.63;;;25.10;90.10;;;;;;5065422;28;20758;-81
2021/01/22 08:40:39;;;;;;;5.78;1.60;;;25.00;90.40;;;;;;5065218;28;21025;-82
2021/01/22 08:43:12;;;;;;;6.88;1.70;;;25.00;91.00;;;;;;5046283;28;20410;-82
2021/01/22 08:45:43;;;;;;;7.68;1.70;;;25.00;90.50;;;;;;5049211;28;20436;-82
2021/01/22 08:48:10;;;;;;;7.00;1.73;;;24.90;90.70;;;;;;5065954;28;20462;-82
2021/01/22 08:50:39;;;;;;;6.87;1.90;;;25.00;91.20;;;;;;5045524;28;20913;-82
2021/01/22 08:53:15;;;;;;;5.53;1.55;;;24.90;91.20;;;;;;5037049;28;20492;-82
2021/01/22 08:55:43;;;;;;;5.43;1.73;;;24.80;91.70;;;;;;5038313;28;20395;-81
2021/01/22 08:58:11;;;;;;;4.95;1.52;;;24.70;92.00;;;;;;5025848;28;20491;-81
2021/01/22 09:00:42;;;;;;;5.60;1.57;;;24.60;92.10;;;;;;5027938;28;20384;-84
2021/01/22 09:03:20;;;;;;;5.97;1.77;;;24.60;92.50;;;;;;5033646;28;20749;-82
2021/01/22 09:05:54;;;;;;;6.13;1.73;;;24.40;92.70;;;;;;5051635;28;20400;-82
2021/01/22 09:08:23;;;;;;;4.22;1.95;;;24.40;92.90;;;;;;5056371;28;20390;-82
2021/01/22 09:10:50;;;;;;;6.07;1.92;;;24.30;93.30;;;;;;5062102;28;20392;-82
2021/01/22 09:13:25;;;;;;;6.33;1.40;;;24.30;93.40;;;;;;5043190;28;20387;-83
2021/01/22 09:16:12;;;;;;;9.30;1.70;;;24.30;94.10;;;;;;5030456;28;20905;-82
2021/01/22 09:18:39;;;;;;;6.93;1.83;;;24.20;93.40;;;;;;5056929;28;20374;-83
2021/01/22 09:21:09;;;;;;;8.65;1.90;;;24.30;93.30;;;;;;5054285;28;20386;-82
2021/01/22 09:23:39;;;;;;;6.82;2.03;;;24.30;93.50;;;;;;5054052;28;20413;-83
2021/01/22 09:26:06;;;;;;;9.05;1.95;;;24.30;93.50;;;;;;5043255;28;20878;-82
2021/01/22 09:28:33;;;;;;;6.82;1.85;;;24.30;93.70;;;;;;5043278;28;20406;-83
2021/01/22 09:31:00;;;;;;;6.93;2.17;;;24.20;94.00;;;;;;5048482;28;20400;-81
2021/01/22 09:33:28;;;;;;;9.00;2.30;;;24.20;94.30;;;;;;5045431;28;20416;-81
2021/01/22 09:35:55;;;;;;;8.15;2.22;;;24.20;94.30;;;;;;5043070;28;21057;-83
2021/01/22 09:38:24;;;;;;;9.90;2.28;;;24.10;94.50;;;;;;5068543;28;20423;-83
2021/01/22 09:40:51;;;;;;;10.45;2.58;;;24.10;94.60;;;;;;5055852;28;20383;-83
2021/01/22 09:43:18;;;;;;;10.75;2.25;;;24.10;94.90;;;;;;5047251;28;20427;-82
2021/01/22 09:45:45;;;;;;;8.90;2.60;;;24.00;95.00;;;;;;5046975;28;20456;-81
2021/01/22 09:48:16;;;;;;;10.35;2.42;;;24.00;95.50;;;;;;5046557;28;20699;-83
2021/01/22 09:50:43;;;;;;;6.65;1.90;;;24.00;95.60;;;;;;5046759;28;20971;-83
2021/01/22 09:53:10;;;;;;;7.82;2.50;;;23.90;96.10;;;;;;5044630;28;20415;-83
2021/01/22 09:55:37;;;;;;;10.48;2.60;;;23.90;96.30;;;;;;5045251;28;20779;-82
2021/01/22 09:58:04;;;;;;;9.82;2.55;;;23.90;96.70;;;;;;5062665;28;20396;-83
2021/01/22 10:00:31;;;;;;;11.00;2.50;;;23.80;96.90;;;;;;5051142;28;20468;-82
2021/01/22 10:03:00;;;;;;;10.83;2.77;;;23.70;97.20;;;;;;5061638;28;20970;-82
2021/01/22 10:05:28;;;;;;;12.53;2.90;;;23.60;97.60;;;;;;5045696;28;20494;-83
2021/01/22 10:07:55;;;;;;;10.65;2.75;;;23.70;97.70;;;;;;5068690;28;20458;-82
2021/01/22 10:10:22;;;;;;;11.83;2.83;;;23.70;97.90;;;;;;5047578;28;20380;-82
2021/01/22 10:12:52;;;;;;;10.50;2.78;;;23.70;98.10;;;;;;5053621;28;20423;-85
2021/01/22 10:15:19;;;;;;;9.97;2.47;;;23.60;98.40;;;;;;5048133;28;20483;-85
2021/01/22 10:17:46;;;;;;;7.27;2.70;;;23.60;98.70;;;;;;5057620;28;20400;-84
2021/01/22 10:20:13;;;;;;;7.70;2.40;;;23.50;98.60;;;;;;5071491;28;20378;-83
2021/01/22 10:22:46;;;;;;;10.20;2.58;;;23.40;98.90;;;;;;5022774;28;20399;-82
2021/01/22 10:25:13;;;;;;;12.50;3.00;;;23.40;99.10;;;;;;5015220;28;20853;-82
2021/01/22 10:27:40;;;;;;;11.90;2.70;;;23.40;99.30;;;;;;5038469;28;20440;-83
2021/01/22 10:30:08;;;;;;;10.60;2.70;;;23.40;99.20;;;;;;5046287;28;20388;-84
2021/01/22 10:32:35;;;;;;;13.10;2.72;;;23.40;99.30;;;;;;5015732;28;20917;-83
2021/01/22 10:35:02;;;;;;;11.15;2.58;;;23.40;99.60;;;;;;5038901;28;20394;-83
2021/01/22 10:37:29;;;;;;;13.07;2.80;;;23.30;99.70;;;;;;5050377;28;21035;-83
2021/01/22 10:39:56;;;;;;;10.38;3.22;;;23.30;99.70;;;;;;5039347;28;20391;-83
2021/01/22 10:42:25;;;;;;;8.90;2.60;;;23.40;99.70;;;;;;5023884;28;20919;-83
2021/01/22 10:44:52;;;;;;;9.88;2.72;;;23.40;99.50;;;;;;5024355;28;20406;-83
2021/01/22 10:47:19;;;;;;;11.93;2.65;;;23.40;99.70;;;;;;5045674;28;20400;-83
2021/01/22 10:49:46;;;;;;;10.18;3.00;;;23.30;99.70;;;;;;5044707;28;20482;-82
2021/01/22 10:52:13;;;;;;;13.23;3.35;;;23.30;99.80;;;;;;5045376;28;20418;-83
2021/01/22 10:54:44;;;;;;;14.55;2.72;;;23.30;99.90;;;;;;5043456;28;21471;-82
2021/01/22 10:57:11;;;;;;;10.27;3.08;;;23.30;99.90;;;;;;5043738;28;20411;-83
2021/01/22 10:59:39;;;;;;;12.23;2.80;;;23.20;99.90;;;;;;5042598;28;20762;-82
2021/01/22 11:02:10;;;;;;;10.73;2.85;;;23.20;99.90;;;;;;5044646;28;20403;-83
2021/01/22 11:04:46;;;;;;;11.57;3.05;;;23.10;99.90;;;;;;5038178;28;20738;-83
2021/01/22 11:07:13;;;;;;;12.05;3.10;;;23.10;99.90;;;;;;5043644;28;20457;-82
2021/01/22 11:09:42;;;;;;;12.13;2.90;;;23.10;99.90;;;;;;5043941;28;20564;-84
2021/01/22 11:12:10;;;;;;;7.97;2.70;;;23.10;99.90;;;;;;5052325;28;20396;-83
2021/01/22 11:14:37;;;;;;;10.18;2.55;;;23.20;99.90;;;;;;5042667;28;20969;-83
2021/01/22 11:17:04;;;;;;;7.57;2.53;;;23.20;99.90;;;;;;5044089;28;20387;-83
2021/01/22 11:19:31;;;;;;;11.02;2.65;;;23.10;99.90;;;;;;5043952;28;20502;-82
2021/01/22 11:21:58;;;;;;;9.73;3.10;;;23.10;99.60;;;;;;5040869;28;20384;-81
2021/01/22 11:24:25;;;;;;;10.10;2.78;;;23.20;99.50;;;;;;5046719;28;20372;-82
2021/01/22 11:26:52;;;;;;;8.70;2.65;;;23.20;99.40;;;;;;5043553;28;20760;-83
2021/01/22 11:29:19;;;;;;;11.27;2.70;;;23.20;99.30;;;;;;5042750;28;20398;-82
2021/01/22 11:31:46;;;;;;;9.82;2.70;;;23.20;99.00;;;;;;5045146;28;20469;-83
2021/01/22 11:34:13;;;;;;;8.55;2.25;;;23.20;99.00;;;;;;5045291;28;20933;-83
2021/01/22 11:36:40;;;;;;;8.67;2.37;;;23.20;98.70;;;;;;5040385;28;20912;-83
2021/01/22 11:39:07;;;;;;;8.53;2.43;;;23.20;98.30;;;;;;5042974;28;20383;-83
2021/01/22 11:41:34;;;;;;;10.23;2.73;;;23.30;98.00;;;;;;5045834;28;20437;-83
2021/01/22 11:44:01;;;;;;;12.30;3.00;;;23.30;98.00;;;;;;5044536;28;20483;-82
2021/01/22 11:46:29;;;;;;;11.70;3.13;;;23.40;97.50;;;;;;5043685;28;20396;-84
2021/01/22 11:48:56;;;;;;;9.25;2.45;;;23.40;97.00;;;;;;5044479;28;20474;-83
2021/01/22 11:51:23;;;;;;;9.52;2.65;;;23.40;96.90;;;;;;5046420;28;20890;-82
2021/01/22 11:53:50;;;;;;;8.05;2.60;;;23.40;97.30;;;;;;5047139;28;20414;-83
2021/01/22 11:56:17;;;;;;;9.88;2.63;;;23.40;96.60;;;;;;5045025;28;20392;-83
2021/01/22 11:58:47;;;;;;;10.23;2.40;;;23.40;96.40;;;;;;5029957;28;20822;-83
2021/01/22 12:01:14;;;;;;;8.07;2.25;;;23.50;95.80;;;;;;5058169;28;20395;-83
2021/01/22 12:03:41;;;;;;;9.02;2.47;;;23.60;95.60;;;;;;5049003;28;20773;-83
2021/01/22 12:06:09;;;;;;;9.90;2.33;;;23.60;95.40;;;;;;5026851;28;20836;-83
2021/01/22 12:08:36;;;;;;;12.30;3.15;;;23.70;95.20;;;;;;5046436;28;20391;-84
2021/01/22 12:11:03;;;;;;;9.32;2.15;;;23.70;94.90;;;;;;5046811;28;20982;-84
2021/01/22 12:13:30;;;;;;;9.88;2.78;;;23.70;94.80;;;;;;5050178;28;20494;-83
2021/01/22 12:15:57;;;;;;;10.77;2.40;;;23.70;94.50;;;;;;5044549;28;20554;-83
2021/01/22 12:18:24;;;;;;;11.23;2.42;;;23.60;94.60;;;;;;5025813;28;20396;-84
2021/01/22 12:20:51;;;;;;;9.50;2.30;;;23.70;94.40;;;;;;5018105;28;20873;-84
2021/01/22 12:23:18;;;;;;;9.13;2.30;;;23.70;94.60;;;;;;5034435;28;20403;-84
2021/01/22 12:25:46;;;;;;;7.30;2.10;;;23.60;94.60;;;;;;5027728;28;20391;-83
2021/01/22 12:28:14;;;;;;;9.57;2.10;;;23.60;94.50;;;;;;5046664;28;20444;-82
2021/01/22 12:30:42;;;;;;;8.60;2.17;;;23.70;94.30;;;;;;5046506;28;20415;-83
2021/01/22 12:33:09;;;;;;;8.18;1.90;;;23.70;94.40;;;;;;5046330;28;20404;-83
2021/01/22 12:35:36;;;;;;;9.52;2.30;;;23.60;94.30;;;;;;5045852;28;20446;-83
2021/01/22 12:38:04;;;;;;;8.10;2.17;;;23.70;94.40;;;;;;5038587;28;20488;-83
2021/01/22 12:40:31;;;;;;;9.60;2.33;;;23.60;94.50;;;;;;5044019;28;20787;-83
2021/01/22 12:42:58;;;;;;;8.77;2.20;;;23.70;94.40;;;;;;5047524;28;21130;-83
2021/01/22 12:45:26;;;;;;;10.57;2.20;;;23.70;94.50;;;;;;5044612;28;20410;-84
2021/01/22 12:47:54;;;;;;;10.18;2.20;;;23.70;94.30;;;;;;5028669;28;20407;-84
2021/01/22 12:50:21;;;;;;;7.72;2.08;;;23.70;94.40;;;;;;5045362;28;20766;-84
2021/01/22 12:52:48;;;;;;;6.90;2.22;;;23.70;94.40;;;;;;5027902;28;20423;-82
2021/01/22 12:55:15;;;;;;;6.93;2.00;;;23.80;94.20;;;;;;5041662;28;20617;-83